Language selection

Weather shortcuts

Northumberland Strait: Past 24 Hour Conditions

 

East Chedabucto Bay - 44488

07:00 AM ADT 20 April 2024Buoy position: 45.45N 60.95W
Disclaimer

This table is a summary of hourly weather conditions for the past 24 hours.
Please note that these observations might not always be representative of weather conditions over their associated marine area.

Date / Time
(ADT)
Wind(knots) Wave height(m) Wave period(s) Pressure(kPa) Air tempC) Water tempC)
20 April 2024
7:00 S 11 gusts 13 0.65 6.8 102.1 3 3
6:00 S 10 gusts 12 0.67 6.8 102.1 3 3
5:00 SSW 11 gusts 13 0.61 6.2 102.1 3 3
4:00 SSW 10 gusts 12 0.63 6.2 102.1 2 3
3:00 S 11 gusts 12 0.65 5.9 102.1 2 3
2:00 S 11 gusts 13 0.71 7.1 102.2 2 3
1:00 S 11 gusts 13 0.69 7.5 102.2 3 3
0:00 S 7 gusts 8 0.77 7.7 102.2 3 3
19 April 2024
23:00 S 5 gusts 5 0.74 7.8 102.2 3 3
22:00 SW 5 gusts 6 0.77 8.2 102.3 3 3
21:00 SSW 5 gusts 6 0.82 7.8 102.2 3 3
20:00 SE 8 gusts 9 0.78 7.7 102.1 3 3
19:00 SE 9 gusts 10 0.71 7.3 102.1 4 3
18:00 SE 8 gusts 10 0.70 8.0 102.1 4 4
17:00 SE 8 gusts 9 0.77 8.7 102.1 4 4
16:00 SW 6 gusts 10 0.60 6.7 102.1 5 4
15:00 NNW 10 gusts 12 0.47 6.2 102.1 5 4
14:00 NNW 11 gusts 14 0.44 6.3 102.1 5 4
13:00 NNW 3 gusts 5 0.39 7.6 102.0 5 3
12:00 NE 10 gusts 12 0.35 7.4 102.0 7 3
11:00 ENE 10 gusts 12 0.36 6.7 102.0 5 3
10:00 NE 8 gusts 11 0.38 5.4 102.0 5 3
9:00 NNE 12 gusts 16 0.37 6.4 102.0 5 3
8:00 NNE 11 gusts 14 0.37 4.7 101.9 3 3
7:00 N 10 gusts 12 0.46 5.8 101.9 3 3

Zoom-in to make a selection

Map of Atlantic - Newfoundland marine weather areas Banquereau - 44139 East Chedabucto Bay – 44488 West Chedabucto Bay – 44489 Blanc-Sablon Airport Cap Whittle Chevery Natashquan Airport Heath Point Îles de la Madeleine Airport Miscou Island Eskasoni (First Nations) Grand Étang Ingonish Beach North Mountain St.Paul Island J.A. Douglas McCurdy Sydney Airport Charlottetown Airport East Point North Cape Argentia Berry Hill Bonavista Burgeo Cape Race Corner Brook Daniel's Harbour Englee Ferolle Point La Scie Port aux Basques Sagona Island St. Anthony Airport St. John's Int'l Airport St. Lawrence Stephenville Airport Twillingate Winterland Branch Hill Wreckhouse Grates Cove Pool's Island Marticot Island Long Pond Cartwright Airport Mary's Harbour
Legend:
buoy Buoy
land station Land Station

Atlantic - Newfoundland Area

Another Region

Date modified: